createdAt,value
2024-03-13T00:01:11.431Z,52.85
2024-03-13T00:03:38.831Z,52.66
2024-03-13T00:06:06.303Z,52.71
2024-03-13T00:08:33.406Z,52.62
2024-03-13T00:11:00.770Z,52.72
2024-03-13T00:13:30.409Z,52.59
2024-03-13T00:15:59.843Z,52.72
2024-03-13T00:18:26.939Z,52.66
2024-03-13T00:20:54.010Z,52.67
2024-03-13T00:23:21.129Z,52.81
2024-03-13T00:25:48.307Z,52.91
2024-03-13T00:28:15.591Z,52.92
2024-03-13T00:30:42.910Z,53.15
2024-03-13T00:33:10.319Z,53.26
2024-03-13T00:35:37.873Z,53.23
2024-03-13T00:38:06.715Z,53.27
2024-03-13T00:40:36.042Z,53.35
2024-03-13T00:43:03.472Z,53.37
2024-03-13T00:45:30.732Z,53.35
2024-03-13T00:47:57.835Z,53.41
2024-03-13T00:50:25.460Z,53.30
2024-03-13T00:52:55.080Z,53.25
2024-03-13T00:55:23.086Z,53.33
2024-03-13T00:57:50.739Z,53.31
2024-03-13T01:00:20.257Z,53.34
2024-03-13T01:02:48.365Z,53.21
2024-03-13T01:05:16.556Z,53.38
2024-03-13T01:07:50.081Z,53.30
2024-03-13T01:10:17.739Z,53.33
2024-03-13T01:12:45.204Z,53.20
2024-03-13T01:15:15.964Z,53.13
2024-03-13T01:17:43.522Z,53.39
2024-03-13T01:20:16.261Z,53.23
2024-03-13T01:22:45.261Z,53.16
2024-03-13T01:25:12.902Z,53.26
2024-03-13T01:27:43.091Z,53.20
2024-03-13T01:30:11.458Z,53.14
2024-03-13T01:32:39.523Z,53.13
2024-03-13T01:35:07.872Z,53.22
2024-03-13T01:37:53.590Z,53.30
2024-03-13T01:40:26.980Z,53.37
2024-03-13T01:43:13.124Z,53.55
2024-03-13T01:46:07.966Z,53.42
2024-03-13T01:48:56.374Z,53.57
2024-03-13T01:51:42.910Z,53.67
2024-03-13T01:54:29.064Z,53.67
2024-03-13T01:57:01.172Z,53.66
2024-03-13T01:59:40.274Z,53.75
2024-03-13T02:02:23.431Z,53.65
2024-03-13T02:04:53.037Z,53.58
2024-03-13T02:07:24.181Z,53.69
2024-03-13T02:09:52.085Z,53.64
2024-03-13T02:12:19.460Z,53.57
2024-03-13T02:14:46.779Z,53.59
2024-03-13T02:17:14.071Z,53.71
2024-03-13T02:19:41.717Z,53.77
2024-03-13T02:22:08.930Z,53.77
2024-03-13T02:24:36.126Z,53.78
2024-03-13T02:27:13.263Z,53.56
2024-03-13T02:29:42.825Z,53.57
2024-03-13T02:32:12.309Z,53.59
2024-03-13T02:34:41.957Z,53.66
2024-03-13T02:37:09.275Z,53.73
2024-03-13T02:39:36.689Z,53.94
2024-03-13T02:42:03.848Z,53.70
2024-03-13T02:44:31.507Z,53.71
2024-03-13T02:46:58.584Z,53.70
2024-03-13T02:49:25.759Z,53.65
2024-03-13T02:51:53.265Z,53.72
2024-03-13T02:54:20.416Z,53.73
2024-03-13T02:56:48.009Z,53.68
2024-03-13T02:59:19.077Z,53.61
2024-03-13T03:01:46.230Z,53.72
2024-03-13T03:04:13.414Z,53.78
2024-03-13T03:06:41.785Z,53.83
2024-03-13T03:09:11.525Z,53.81
2024-03-13T03:11:38.662Z,53.81
2024-03-13T03:14:06.287Z,53.84
2024-03-13T03:16:33.545Z,53.71
2024-03-13T03:19:01.127Z,53.71
2024-03-13T03:21:28.296Z,53.75
2024-03-13T03:23:55.362Z,53.84
2024-03-13T03:26:22.520Z,53.83
2024-03-13T03:28:49.696Z,53.86
2024-03-13T03:31:17.097Z,53.86
2024-03-13T03:33:44.260Z,53.82
2024-03-13T03:36:11.457Z,53.90
2024-03-13T03:38:38.565Z,53.92
2024-03-13T03:41:05.728Z,54.03
2024-03-13T03:43:33.289Z,54.01
2024-03-13T03:46:00.860Z,53.92
2024-03-13T03:48:28.134Z,54.02
2024-03-13T03:50:55.197Z,54.09
2024-03-13T03:53:22.227Z,54.05
2024-03-13T03:55:49.270Z,54.07
2024-03-13T03:58:16.410Z,54.16
2024-03-13T04:00:43.505Z,54.13
2024-03-13T04:03:10.825Z,54.14
2024-03-13T04:05:37.975Z,54.16
2024-03-13T04:08:05.765Z,54.11
2024-03-13T04:10:33.295Z,54.17
2024-03-13T04:13:01.314Z,54.16
2024-03-13T04:15:28.453Z,54.21
2024-03-13T04:17:56.005Z,54.17
2024-03-13T04:20:23.692Z,54.22
2024-03-13T04:22:51.685Z,54.27
2024-03-13T04:25:20.017Z,54.25
2024-03-13T04:27:48.597Z,54.23
2024-03-13T04:30:15.901Z,54.25
2024-03-13T04:32:43.190Z,54.17
2024-03-13T04:35:10.472Z,54.21
2024-03-13T04:37:40.400Z,54.28
2024-03-13T04:40:10.646Z,54.29
2024-03-13T04:42:38.160Z,54.40
2024-03-13T04:45:08.091Z,54.29
2024-03-13T04:47:39.607Z,54.29
2024-03-13T04:50:09.981Z,54.34
2024-03-13T04:52:37.316Z,54.46
2024-03-13T04:55:05.379Z,54.60
2024-03-13T04:57:34.152Z,54.57
2024-03-13T05:00:01.301Z,54.72
2024-03-13T05:02:28.428Z,54.69
2024-03-13T05:04:55.533Z,54.70
2024-03-13T05:07:23.533Z,54.68
2024-03-13T05:09:52.694Z,54.73
2024-03-13T05:12:19.849Z,54.79
2024-03-13T05:14:47.449Z,54.74
2024-03-13T05:17:17.235Z,54.73
2024-03-13T05:19:44.530Z,54.79
2024-03-13T05:22:11.716Z,54.78
2024-03-13T05:24:38.816Z,54.87
2024-03-13T05:27:06.734Z,54.92
2024-03-13T05:29:33.976Z,55.04
2024-03-13T05:32:08.501Z,54.91
2024-03-13T05:34:35.804Z,54.99
2024-03-13T05:37:03.090Z,55.00
2024-03-13T05:39:30.339Z,55.19
2024-03-13T05:41:57.868Z,55.23
2024-03-13T05:44:25.454Z,55.30
2024-03-13T05:46:52.792Z,55.25
2024-03-13T05:49:20.110Z,55.27
2024-03-13T05:51:48.701Z,55.45
2024-03-13T05:54:15.906Z,55.30
2024-03-13T05:56:44.439Z,55.33
2024-03-13T05:59:11.558Z,55.42
2024-03-13T06:01:39.179Z,55.43
2024-03-13T06:04:06.546Z,55.50
2024-03-13T06:06:33.676Z,55.57
2024-03-13T06:09:00.971Z,55.49
2024-03-13T06:11:28.915Z,55.50
2024-03-13T06:13:56.549Z,55.50
2024-03-13T06:16:23.717Z,55.58
2024-03-13T06:18:51.429Z,55.69
2024-03-13T06:21:20.282Z,55.79
2024-03-13T06:23:53.389Z,55.72
2024-03-13T06:26:22.175Z,55.78
2024-03-13T06:29:08.320Z,55.72
2024-03-13T06:31:41.083Z,55.81
2024-03-13T06:34:11.742Z,55.86
2024-03-13T06:36:40.440Z,55.93
2024-03-13T06:39:08.458Z,55.91
2024-03-13T06:41:35.596Z,55.81
2024-03-13T06:44:03.265Z,55.79
2024-03-13T06:46:30.891Z,55.72
2024-03-13T06:48:58.036Z,55.85
2024-03-13T06:51:25.284Z,55.98
2024-03-13T06:53:52.342Z,55.84
2024-03-13T06:56:19.461Z,55.98
2024-03-13T06:58:46.953Z,55.92
2024-03-13T07:01:14.760Z,56.14
2024-03-13T07:03:42.882Z,56.04
2024-03-13T07:06:13.440Z,55.92
2024-03-13T07:08:40.521Z,56.02
2024-03-13T07:11:07.929Z,56.08
2024-03-13T07:13:35.833Z,55.96
2024-03-13T07:16:03.008Z,55.90
2024-03-13T07:18:33.311Z,55.81
2024-03-13T07:21:00.474Z,55.92
2024-03-13T07:23:28.173Z,56.00
2024-03-13T07:25:56.509Z,56.11
2024-03-13T07:28:23.798Z,56.02
2024-03-13T07:30:51.014Z,56.22
2024-03-13T07:33:18.704Z,56.12
2024-03-13T07:35:45.836Z,56.00
2024-03-13T07:38:13.018Z,56.02
2024-03-13T07:40:43.553Z,56.12
2024-03-13T07:43:10.787Z,56.06
2024-03-13T07:45:39.269Z,56.10
2024-03-13T07:48:09.847Z,55.90
2024-03-13T07:50:39.971Z,56.14
2024-03-13T07:53:07.847Z,56.09
2024-03-13T07:55:35.688Z,56.13
2024-03-13T07:58:04.323Z,56.16
2024-03-13T08:00:36.453Z,56.10
2024-03-13T08:03:04.070Z,56.14
2024-03-13T08:05:31.306Z,56.15
2024-03-13T09:05:55.696Z,56.92
2024-03-13T09:08:35.991Z,57.00
2024-03-13T09:11:13.812Z,57.00
2024-03-13T09:13:45.218Z,56.96
2024-03-13T09:16:15.710Z,57.01
2024-03-13T09:18:43.259Z,56.97
2024-03-13T09:21:13.487Z,56.94
2024-03-13T09:23:40.823Z,56.92
2024-03-13T09:26:08.085Z,56.98
2024-03-13T09:28:35.158Z,56.92
2024-03-13T09:31:03.817Z,56.95
2024-03-13T09:33:32.714Z,57.09
2024-03-13T09:36:01.937Z,57.01
2024-03-13T09:38:29.252Z,57.12
2024-03-13T09:40:56.524Z,57.08
2024-03-13T09:43:30.237Z,56.97
2024-03-13T09:45:58.112Z,56.87
2024-03-13T09:48:26.476Z,56.98
2024-03-13T09:50:57.700Z,57.01
2024-03-13T09:53:25.803Z,57.22
2024-03-13T09:55:54.102Z,57.26
2024-03-13T09:58:22.700Z,57.25
2024-03-13T10:00:54.784Z,57.15
2024-03-13T10:03:26.814Z,57.20
2024-03-13T10:06:13.779Z,57.26
2024-03-13T10:08:45.921Z,57.26
2024-03-13T10:11:16.709Z,57.40
2024-03-13T10:13:45.483Z,57.36
2024-03-13T10:16:13.456Z,57.42
2024-03-13T10:18:49.486Z,57.45
2024-03-13T10:21:28.230Z,57.42
2024-03-13T10:24:00.450Z,57.55
2024-03-13T10:26:30.206Z,57.40
2024-03-13T10:28:58.646Z,57.52
2024-03-13T10:31:26.618Z,57.50
2024-03-13T10:33:57.674Z,57.46
2024-03-13T10:36:25.243Z,57.50
2024-03-13T10:38:54.351Z,57.45
2024-03-13T10:41:21.779Z,57.51
2024-03-13T10:43:49.008Z,57.21
2024-03-13T10:46:16.510Z,57.30
2024-03-13T10:48:43.813Z,57.43
2024-03-13T10:51:15.387Z,57.32
2024-03-13T10:53:46.433Z,57.27
2024-03-13T10:56:15.986Z,57.20
2024-03-13T10:58:48.284Z,57.12
2024-03-13T11:01:20.091Z,57.20
2024-03-13T11:03:57.317Z,57.08
2024-03-13T11:06:25.808Z,57.10
2024-03-13T11:08:53.698Z,56.87
2024-03-13T11:11:28.228Z,56.67
2024-03-13T11:13:57.788Z,56.65
2024-03-13T11:16:26.568Z,56.42
2024-03-13T11:18:57.714Z,56.37
2024-03-13T11:21:46.438Z,56.24
2024-03-13T11:24:26.393Z,56.45
2024-03-13T11:26:54.259Z,56.59
2024-03-13T11:29:35.680Z,56.46
2024-03-13T11:32:04.103Z,57.01
2024-03-13T11:34:31.355Z,57.11
2024-03-13T11:36:59.563Z,56.90
2024-03-13T11:39:27.249Z,56.94
2024-03-13T11:41:54.340Z,56.87
2024-03-13T11:44:21.387Z,57.02
2024-03-13T11:46:51.181Z,56.88
2024-03-13T11:49:20.703Z,56.96
2024-03-13T11:52:04.295Z,56.56
2024-03-13T11:54:33.766Z,56.64
2024-03-13T11:57:14.318Z,56.57
2024-03-13T11:59:57.638Z,56.48
2024-03-13T12:02:33.238Z,56.63
2024-03-13T12:05:07.964Z,56.64
2024-03-13T12:07:43.886Z,56.46
2024-03-13T12:10:21.029Z,56.57
2024-03-13T12:12:48.568Z,56.66
2024-03-13T12:15:21.159Z,56.36
2024-03-13T12:17:53.128Z,56.46
2024-03-13T12:20:23.402Z,56.73
2024-03-13T12:22:52.762Z,56.63
2024-03-13T12:25:23.337Z,56.70
2024-03-13T12:27:52.015Z,56.67
2024-03-13T12:30:21.796Z,56.78
2024-03-13T12:32:59.739Z,56.56
2024-03-13T12:35:27.777Z,56.60
2024-03-13T12:37:58.290Z,56.46
2024-03-13T12:40:26.519Z,56.51
2024-03-13T12:42:54.027Z,56.76
2024-03-13T12:45:22.765Z,56.48
2024-03-13T12:47:50.280Z,56.69
2024-03-13T12:50:19.499Z,56.30
2024-03-13T12:52:48.010Z,56.43
2024-03-13T12:55:21.379Z,56.38
2024-03-13T12:57:49.958Z,56.33
2024-03-13T13:00:21.693Z,56.21
2024-03-13T13:02:54.617Z,56.31
2024-03-13T13:05:22.454Z,56.12
2024-03-13T13:07:57.570Z,55.88
2024-03-13T13:10:26.549Z,56.02
2024-03-13T13:12:57.933Z,55.81
2024-03-13T13:15:28.426Z,55.63
2024-03-13T13:17:55.745Z,55.93
2024-03-13T13:20:25.725Z,55.70
2024-03-13T13:22:53.919Z,55.61
2024-03-13T13:25:23.463Z,55.24
2024-03-13T13:27:52.452Z,55.52
2024-03-13T13:30:20.261Z,55.44
2024-03-13T13:32:49.052Z,55.38
2024-03-13T13:35:16.536Z,55.41
2024-03-13T13:37:47.749Z,55.18
2024-03-13T13:40:21.248Z,55.32
2024-03-13T13:42:53.470Z,55.42
2024-03-13T13:45:24.121Z,55.44
2024-03-13T13:47:55.510Z,55.24
2024-03-13T13:50:23.081Z,55.07
2024-03-13T13:52:50.802Z,55.37
2024-03-13T13:55:18.768Z,55.21
2024-03-13T13:57:52.776Z,55.38
2024-03-13T14:00:24.308Z,55.46
2024-03-13T14:02:53.993Z,55.61
2024-03-13T14:05:21.738Z,55.71
2024-03-13T14:07:51.961Z,55.54
2024-03-13T14:10:20.031Z,55.57
2024-03-13T14:12:49.491Z,55.27
2024-03-13T14:15:20.958Z,55.33
2024-03-13T14:17:51.031Z,55.69
2024-03-13T14:20:22.919Z,55.43
2024-03-13T14:22:55.917Z,55.29
2024-03-13T14:25:27.514Z,55.09
2024-03-13T14:27:55.260Z,55.23
2024-03-13T14:30:22.938Z,54.94
2024-03-13T14:32:50.308Z,54.84
2024-03-13T14:35:17.444Z,55.02
2024-03-13T14:37:44.636Z,54.95
2024-03-13T14:40:12.931Z,54.88
2024-03-13T14:42:40.255Z,54.67
2024-03-13T14:45:08.140Z,54.82
2024-03-13T14:47:35.968Z,54.69
2024-03-13T14:50:03.343Z,54.64
2024-03-13T14:52:30.461Z,54.71
2024-03-13T14:54:58.198Z,54.66
2024-03-13T14:57:28.806Z,54.65
2024-03-13T14:59:56.401Z,54.86
2024-03-13T15:02:23.486Z,54.83
2024-03-13T15:04:53.835Z,54.80
2024-03-13T15:07:20.954Z,54.80
2024-03-13T15:09:49.780Z,54.48
2024-03-13T15:12:17.116Z,54.67
2024-03-13T15:14:45.528Z,54.42
2024-03-13T15:17:14.510Z,54.26
2024-03-13T15:19:45.709Z,54.57
2024-03-13T15:22:13.636Z,54.49
2024-03-13T15:24:42.246Z,54.25
2024-03-13T15:27:09.518Z,54.42
2024-03-13T15:29:38.207Z,54.25
2024-03-13T15:32:06.873Z,54.15
2024-03-13T15:34:34.053Z,54.32
2024-03-13T15:37:01.833Z,54.34
2024-03-13T15:39:29.195Z,54.24
2024-03-13T15:41:56.428Z,54.15
2024-03-13T15:44:23.874Z,54.07
2024-03-13T15:46:51.990Z,54.17
2024-03-13T15:49:19.812Z,54.16
2024-03-13T15:51:48.732Z,54.24
2024-03-13T15:54:16.311Z,54.32
2024-03-13T15:56:43.947Z,54.37
2024-03-13T15:59:13.856Z,54.14
2024-03-13T16:01:41.651Z,54.22
2024-03-13T16:04:09.636Z,54.30
2024-03-13T16:06:38.167Z,54.06
2024-03-13T16:09:13.076Z,54.09
2024-03-13T16:11:43.521Z,54.11
2024-03-13T16:14:11.766Z,54.17
2024-03-13T16:16:39.272Z,54.05
2024-03-13T16:19:06.873Z,54.32
2024-03-13T16:21:35.600Z,54.24
2024-03-13T16:24:04.767Z,54.09
2024-03-13T16:26:32.150Z,54.34
2024-03-13T16:28:59.469Z,54.25
2024-03-13T16:31:26.640Z,54.06
2024-03-13T16:33:54.711Z,54.05
2024-03-13T16:36:21.964Z,54.16
2024-03-13T16:38:56.701Z,54.26
2024-03-13T16:41:23.828Z,54.37
2024-03-13T16:43:51.006Z,54.07
2024-03-13T16:46:18.502Z,54.35
2024-03-13T16:48:45.755Z,54.16
2024-03-13T16:51:13.066Z,54.29
2024-03-13T16:53:40.327Z,54.26
2024-03-13T16:56:10.790Z,53.99
2024-03-13T16:58:37.983Z,54.09
2024-03-13T17:01:05.259Z,54.14
2024-03-13T17:03:33.778Z,53.83
2024-03-13T17:06:01.056Z,53.87
2024-03-13T17:08:28.296Z,53.64
2024-03-13T17:10:55.396Z,53.63
2024-03-13T17:13:22.518Z,53.70
2024-03-13T17:15:49.633Z,53.64
2024-03-13T17:18:16.886Z,53.59
2024-03-13T17:20:45.996Z,53.69
2024-03-13T17:23:13.375Z,53.55
2024-03-13T17:25:43.463Z,53.70
2024-03-13T17:28:10.676Z,53.63
2024-03-13T17:30:37.808Z,53.56
2024-03-13T17:33:06.694Z,53.67
2024-03-13T17:35:35.050Z,53.58
2024-03-13T17:38:03.592Z,53.68
2024-03-13T17:40:30.641Z,53.53
2024-03-13T17:42:57.845Z,53.58
2024-03-13T17:45:25.876Z,53.43
2024-03-13T17:47:53.184Z,53.42
2024-03-13T17:50:20.256Z,53.29
2024-03-13T17:52:47.415Z,53.37
2024-03-13T17:55:14.663Z,53.29
2024-03-13T17:57:41.807Z,53.30
2024-03-13T18:00:09.808Z,53.31
2024-03-13T18:02:39.249Z,53.16
2024-03-13T18:05:11.252Z,53.36
2024-03-13T18:07:39.430Z,53.20
2024-03-13T18:10:07.618Z,53.13
2024-03-13T18:12:36.350Z,53.32
2024-03-13T18:15:04.101Z,53.26
2024-03-13T18:17:31.228Z,53.34
2024-03-13T18:19:58.331Z,53.19
2024-03-13T18:22:25.889Z,53.29
2024-03-13T18:24:54.717Z,53.55
2024-03-13T18:27:22.251Z,53.33
2024-03-13T18:29:49.462Z,53.30
2024-03-13T18:32:16.716Z,53.44
2024-03-13T18:34:44.584Z,53.31
2024-03-13T18:37:11.692Z,53.39
2024-03-13T18:39:40.729Z,53.57
2024-03-13T18:42:07.974Z,53.51
2024-03-13T18:44:35.303Z,53.34
2024-03-13T18:47:02.882Z,53.41
2024-03-13T18:49:30.094Z,53.41
2024-03-13T18:51:57.284Z,53.46
2024-03-13T18:54:24.594Z,53.45
2024-03-13T18:56:51.912Z,53.56
2024-03-13T18:59:19.754Z,53.42
2024-03-13T19:01:47.206Z,53.53
2024-03-13T19:04:14.436Z,53.43
2024-03-13T19:06:42.298Z,53.54
2024-03-13T19:09:10.251Z,53.63
2024-03-13T19:11:39.290Z,53.51
2024-03-13T19:14:06.602Z,53.55
2024-03-13T19:16:36.954Z,53.55
2024-03-13T19:19:04.825Z,53.46
2024-03-13T19:21:32.265Z,53.59
2024-03-13T19:23:59.516Z,53.44
2024-03-13T19:26:30.867Z,53.50
2024-03-13T19:28:58.136Z,53.66
2024-03-13T19:31:31.276Z,53.53
2024-03-13T19:34:04.696Z,53.45
2024-03-13T19:36:32.013Z,53.66
2024-03-13T19:38:59.217Z,53.60
2024-03-13T19:41:26.571Z,53.73
2024-03-13T19:43:55.177Z,53.73
2024-03-13T19:46:22.251Z,53.72
2024-03-13T19:48:50.011Z,53.80
2024-03-13T19:51:17.438Z,53.69
2024-03-13T19:53:44.687Z,53.86
2024-03-13T19:56:12.316Z,53.85
2024-03-13T19:58:40.454Z,53.87
2024-03-13T20:01:07.865Z,53.73
2024-03-13T20:03:35.433Z,53.95
2024-03-13T20:06:03.042Z,53.75
2024-03-13T20:08:31.474Z,53.87
2024-03-13T20:11:02.386Z,53.86
2024-03-13T20:13:29.721Z,53.93
2024-03-13T20:15:57.235Z,53.83
2024-03-13T20:18:24.457Z,54.00
2024-03-13T20:20:51.856Z,53.95
2024-03-13T20:23:18.944Z,53.97
2024-03-13T20:25:46.904Z,53.88
2024-03-13T20:28:15.040Z,53.92
2024-03-13T20:30:42.382Z,53.92
2024-03-13T20:33:11.279Z,53.89
2024-03-13T20:35:39.485Z,53.92
2024-03-13T20:38:06.722Z,53.96
2024-03-13T20:40:37.849Z,53.93
2024-03-13T20:43:06.366Z,53.90
2024-03-13T20:45:33.544Z,53.81
2024-03-13T20:48:01.032Z,53.74
2024-03-13T20:50:28.148Z,53.90
2024-03-13T20:52:55.174Z,53.88
2024-03-13T20:55:23.189Z,53.80
2024-03-13T20:57:50.354Z,53.75
2024-03-13T21:00:22.092Z,53.67
2024-03-13T21:02:51.992Z,53.83
2024-03-13T21:05:19.156Z,53.76
2024-03-13T21:07:46.300Z,53.94
2024-03-13T21:10:15.249Z,54.04
2024-03-13T21:12:45.035Z,53.94
2024-03-13T21:15:12.551Z,53.84
2024-03-13T21:17:41.591Z,53.71
2024-03-13T21:20:11.263Z,53.93
2024-03-13T21:22:41.233Z,53.87
2024-03-13T21:25:09.371Z,53.86
2024-03-13T21:27:39.739Z,53.82
2024-03-13T21:30:11.395Z,53.90
2024-03-13T21:32:38.709Z,53.77
2024-03-13T21:35:06.200Z,53.95
2024-03-13T21:37:33.258Z,53.96
2024-03-13T21:40:00.525Z,53.89
2024-03-13T21:42:27.905Z,53.83
2024-03-13T21:44:55.777Z,53.82
2024-03-13T21:47:22.988Z,53.79
2024-03-13T21:49:50.714Z,53.75
2024-03-13T21:52:17.909Z,53.88
2024-03-13T21:54:45.034Z,53.85
2024-03-13T21:57:12.967Z,53.78
2024-03-13T21:59:40.196Z,53.91
2024-03-13T22:02:08.812Z,53.82
2024-03-13T22:04:35.894Z,53.80
2024-03-13T22:07:04.588Z,53.88
2024-03-13T22:09:32.284Z,53.77
2024-03-13T22:11:59.784Z,53.79
2024-03-13T22:14:28.656Z,53.92
2024-03-13T22:16:55.774Z,53.87
2024-03-13T22:19:22.892Z,53.92
2024-03-13T22:21:50.052Z,53.88
2024-03-13T22:24:17.246Z,53.92
2024-03-13T22:26:46.853Z,53.89
2024-03-13T22:29:14.152Z,53.71
2024-03-13T22:31:41.825Z,53.90
2024-03-13T22:34:09.004Z,53.84
2024-03-13T22:36:36.054Z,53.86
2024-03-13T22:39:06.436Z,53.79
2024-03-13T22:41:33.563Z,53.83
2024-03-13T22:44:00.981Z,53.95
2024-03-13T22:46:28.990Z,53.85
2024-03-13T22:48:56.179Z,53.89
2024-03-13T22:51:23.670Z,53.77
2024-03-13T22:53:51.431Z,53.84
2024-03-13T22:56:18.655Z,53.84
2024-03-13T22:58:45.792Z,53.88
2024-03-13T23:01:14.042Z,53.76
2024-03-13T23:03:41.662Z,53.82
2024-03-13T23:06:09.413Z,53.78
2024-03-13T23:08:38.199Z,53.78
2024-03-13T23:11:05.466Z,53.92
2024-03-13T23:13:32.555Z,53.88
2024-03-13T23:15:59.686Z,53.82
2024-03-13T23:18:29.158Z,53.88
2024-03-13T23:20:56.535Z,53.88
2024-03-13T23:23:27.514Z,53.92
2024-03-13T23:25:54.994Z,53.89
2024-03-13T23:28:22.477Z,54.04
2024-03-13T23:30:49.804Z,53.87
2024-03-13T23:33:17.141Z,53.94
2024-03-13T23:35:44.303Z,53.85
2024-03-13T23:38:11.788Z,53.82
2024-03-13T23:40:39.209Z,53.83
2024-03-13T23:43:06.415Z,53.93
2024-03-13T23:45:33.702Z,53.82
2024-03-13T23:48:00.959Z,53.83
2024-03-13T23:50:28.245Z,53.78
2024-03-13T23:52:55.404Z,53.84
2024-03-13T23:55:22.590Z,53.84
2024-03-13T23:57:50.438Z,53.84
